Time;durP1;ratioP1;P1;durP2;ratioP2;P2;SDS_P1;SDS_P2;PMS_P1;PMS_P2;Temp;Humidity;BMP_temperature;BMP_pressure;BME280_temperature;BME280_humidity;BME280_pressure;Samples;Min_cycle;Max_cycle;Signal;HPM_P1;HPM_P2
2022/02/05 00:00:53;;;;;;;7.60;1.10;;;4.10;99.90;;;;;;4979869;28;20034;-94
2022/02/05 00:03:29;;;;;;;8.17;1.30;;;4.10;99.90;;;;;;4949989;28;20055;-95
2022/02/05 00:06:03;;;;;;;12.73;1.77;;;4.10;99.90;;;;;;4962800;28;20041;-95
2022/02/05 01:04:27;;;;;;;;;;;;;;;;;;;;;
2022/02/05 01:31:32;;;;;;;13.02;2.35;;;3.50;99.90;;;;;;4822979;29;20037;-89
2022/02/05 01:58:14;;;;;;;7.32;0.95;;;3.70;99.90;;;;;;4897796;29;20040;-88
2022/02/05 02:12:03;;;;;;;8.23;1.37;;;3.80;99.90;;;;;;4986091;28;20043;-87
2022/02/05 02:23:42;;;;;;;8.77;1.40;;;3.70;99.90;;;;;;4948771;28;20715;-87
2022/02/05 02:29:10;;;;;;;14.10;1.53;;;3.80;99.90;;;;;;4968845;28;22521;-87
2022/02/05 02:31:49;;;;;;;11.52;1.83;;;3.70;99.90;;;;;;4960157;28;20030;-87
2022/02/05 02:34:31;;;;;;;7.80;1.40;;;3.70;99.90;;;;;;4974240;28;20030;-87
2022/02/05 02:37:28;;;;;;;9.55;1.73;;;3.70;99.90;;;;;;4973586;28;20051;-87
2022/02/05 02:43:28;;;;;;;7.70;1.40;;;3.60;99.90;;;;;;4974402;28;20401;-88
2022/02/05 02:46:14;;;;;;;13.17;1.47;;;3.50;99.90;;;;;;4943508;28;20355;-88
2022/02/05 02:49:03;;;;;;;9.93;1.33;;;3.40;99.90;;;;;;4973175;28;20042;-87
2022/02/05 03:02:23;;;;;;;6.60;1.07;;;3.50;99.90;;;;;;4965441;28;20377;-88
2022/02/05 03:05:32;;;;;;;;;;;;;;;;;;;;;
2022/02/05 03:08:59;;;;;;;10.05;1.38;;;3.60;99.90;;;;;;4977655;28;20038;-87
2022/02/05 03:15:08;;;;;;;13.57;1.20;;;3.80;99.90;;;;;;4971705;28;20027;-87
2022/02/05 03:18:10;;;;;;;9.13;1.20;;;3.80;99.90;;;;;;4944769;28;20041;-86
2022/02/05 03:20:58;;;;;;;14.03;2.10;;;3.80;99.90;;;;;;4974293;28;20061;-88
2022/02/05 03:23:47;;;;;;;10.07;1.10;;;3.90;99.90;;;;;;4973314;28;20334;-86
2022/02/05 03:26:15;;;;;;;5.68;1.17;;;3.90;99.90;;;;;;4972801;28;20397;-87
2022/02/05 03:29:06;;;;;;;6.57;0.90;;;3.90;99.90;;;;;;4942891;28;20029;-87
2022/02/05 03:31:52;;;;;;;8.90;1.37;;;3.90;99.90;;;;;;4957179;28;20046;-87
2022/02/05 03:34:57;;;;;;;;;;;;;;;;;;;;;
2022/02/05 03:37:49;;;;;;;10.48;1.38;;;3.90;99.90;;;;;;4990394;28;20053;-86
2022/02/05 03:40:38;;;;;;;12.70;1.17;;;3.90;99.90;;;;;;4976863;28;20042;-87
2022/02/05 03:47:08;;;;;;;9.07;0.83;;;3.90;99.90;;;;;;4919382;28;20137;-86
2022/02/05 03:50:02;;;;;;;5.63;0.60;;;3.90;99.90;;;;;;4965107;28;20042;-85
2022/02/05 03:52:43;;;;;;;10.18;1.05;;;4.00;99.90;;;;;;4971434;28;20050;-85
2022/02/05 03:55:13;;;;;;;10.73;1.15;;;4.00;99.90;;;;;;4940137;28;20074;-86
2022/02/05 03:58:10;;;;;;;;;;;;;;;;;;;;;
2022/02/05 04:01:21;;;;;;;9.95;1.70;;;4.00;99.90;;;;;;4960742;28;20034;-87
2022/02/05 04:04:39;;;;;;;7.43;1.00;;;3.90;99.90;;;;;;4952306;28;20180;-86
2022/02/05 04:07:20;;;;;;;6.80;1.00;;;4.00;99.90;;;;;;4971150;28;20133;-87
2022/02/05 04:10:26;;;;;;;7.43;1.00;;;3.90;99.90;;;;;;4936710;28;20039;-87
2022/02/05 04:24:39;;;;;;;7.95;1.35;;;3.90;99.90;;;;;;4985009;28;20497;-85
2022/02/05 04:28:02;;;;;;;9.20;1.30;;;3.90;99.90;;;;;;4934493;28;20036;-86
2022/02/05 04:31:01;;;;;;;;;;;3.80;99.90;;;;;;4953762;28;20543;-86
2022/02/05 04:33:38;;;;;;;12.88;1.50;;;3.90;99.90;;;;;;4928323;28;19918;-86
2022/02/05 04:36:14;;;;;;;8.82;1.63;;;3.90;99.90;;;;;;4947606;28;21895;-86
2022/02/05 04:38:46;;;;;;;14.35;1.02;;;3.80;99.90;;;;;;4918489;28;20065;-85
2022/02/05 04:41:32;;;;;;;9.07;1.20;;;3.80;99.90;;;;;;4933299;28;20062;-86
2022/02/05 04:50:07;;;;;;;;;;;3.80;99.90;;;;;;4922182;28;20147;-86
2022/02/05 05:04:40;;;;;;;10.48;1.05;;;3.70;99.90;;;;;;4976556;28;20042;-86
2022/02/05 05:15:39;;;;;;;14.20;1.20;;;3.90;99.90;;;;;;4952483;28;20512;-85
2022/02/05 05:21:03;;;;;;;12.00;1.08;;;3.90;99.90;;;;;;4993639;28;20034;-85
2022/02/05 05:23:38;;;;;;;7.85;1.30;;;3.90;99.90;;;;;;4973808;28;20034;-85
2022/02/05 05:26:12;;;;;;;10.70;1.20;;;4.00;99.90;;;;;;4944029;28;20496;-86
2022/02/05 05:28:49;;;;;;;10.52;0.80;;;4.00;99.90;;;;;;4956055;28;20473;-85
2022/02/05 05:31:46;;;;;;;10.70;1.35;;;4.10;99.90;;;;;;4924927;28;20029;-86
2022/02/05 05:34:24;;;;;;;7.23;0.97;;;4.10;99.90;;;;;;4971691;28;20056;-86
2022/02/05 05:37:00;;;;;;;9.07;0.93;;;4.00;99.90;;;;;;4953280;28;20493;-85
2022/02/05 05:39:44;;;;;;;7.28;0.90;;;4.10;99.90;;;;;;4959029;28;20030;-86
2022/02/05 05:42:28;;;;;;;10.20;1.30;;;4.00;99.90;;;;;;4975005;28;20394;-86
2022/02/05 05:46:14;;;;;;;12.88;0.82;;;3.90;99.90;;;;;;4987142;28;20473;-86
2022/02/05 05:51:48;;;;;;;11.93;1.10;;;3.70;99.90;;;;;;4972312;28;20038;-85
2022/02/05 05:54:16;;;;;;;10.15;0.93;;;3.70;99.90;;;;;;4956623;28;20050;-84
2022/02/05 05:56:59;;;;;;;10.13;1.23;;;3.70;99.90;;;;;;4969158;28;20702;-85
2022/02/05 06:00:26;;;;;;;10.95;1.48;;;3.60;99.90;;;;;;4966617;28;20042;-85
2022/02/05 06:03:01;;;;;;;9.75;0.70;;;3.50;99.90;;;;;;4969136;28;20390;-85
2022/02/05 06:05:28;;;;;;;12.27;1.10;;;3.50;99.90;;;;;;4954270;28;20037;-85
2022/02/05 06:07:57;;;;;;;11.80;1.45;;;3.40;99.90;;;;;;4976922;28;20073;-84
2022/02/05 06:10:30;;;;;;;9.73;0.95;;;3.40;99.90;;;;;;4971634;28;20018;-86
2022/02/05 06:13:07;;;;;;;9.63;0.82;;;3.40;99.90;;;;;;4978507;28;20377;-86
2022/02/05 06:15:51;;;;;;;9.30;1.03;;;3.50;99.90;;;;;;4976310;28;20492;-85
2022/02/05 06:18:22;;;;;;;11.90;1.10;;;3.50;99.90;;;;;;4958117;28;20021;-86
2022/02/05 06:20:57;;;;;;;4.57;1.20;;;3.50;99.90;;;;;;4994684;28;20492;-86
2022/02/05 06:23:28;;;;;;;9.53;1.40;;;3.60;99.90;;;;;;4943856;28;20048;-85
2022/02/05 06:26:04;;;;;;;13.50;1.48;;;3.60;99.90;;;;;;4943139;28;20037;-86
2022/02/05 06:28:34;;;;;;;12.30;1.40;;;3.60;99.90;;;;;;4956984;28;20034;-86
2022/02/05 06:31:00;;;;;;;17.93;1.63;;;3.70;99.90;;;;;;4958669;28;20038;-85
2022/02/05 06:33:27;;;;;;;12.27;1.17;;;3.70;99.90;;;;;;4975965;28;20038;-85
2022/02/05 06:35:57;;;;;;;13.20;1.23;;;3.70;99.90;;;;;;4972777;28;20030;-86
2022/02/05 06:38:27;;;;;;;9.37;0.80;;;3.80;99.90;;;;;;4961402;28;20022;-86
2022/02/05 06:40:56;;;;;;;13.17;1.73;;;3.80;99.90;;;;;;4963255;28;20041;-86
2022/02/05 06:43:38;;;;;;;9.23;1.10;;;3.80;99.90;;;;;;4970063;28;20038;-86
2022/02/05 06:46:08;;;;;;;15.30;1.33;;;3.80;99.90;;;;;;4992186;28;20018;-85
2022/02/05 06:48:48;;;;;;;8.53;0.80;;;3.80;99.90;;;;;;4977028;28;20026;-84
2022/02/05 06:51:17;;;;;;;10.00;1.20;;;3.90;99.90;;;;;;4989443;28;20042;-84
2022/02/05 06:53:47;;;;;;;17.80;1.45;;;3.90;99.90;;;;;;4956304;28;20026;-84
2022/02/05 06:56:13;;;;;;;9.02;1.25;;;3.80;99.90;;;;;;4955204;28;20042;-81
2022/02/05 06:58:46;;;;;;;8.60;1.30;;;3.80;99.90;;;;;;4972519;28;20034;-84
2022/02/05 07:01:14;;;;;;;10.63;1.30;;;3.80;99.90;;;;;;4968217;28;20045;-80
2022/02/05 07:03:40;;;;;;;12.07;1.60;;;3.80;99.90;;;;;;4960773;28;20050;-82
2022/02/05 07:06:07;;;;;;;6.13;1.00;;;3.70;99.90;;;;;;4977801;28;20034;-82
2022/02/05 07:08:34;;;;;;;11.73;1.38;;;3.80;99.90;;;;;;4957548;28;20035;-83
2022/02/05 07:11:01;;;;;;;12.43;1.17;;;3.80;99.90;;;;;;4989752;28;20041;-80
2022/02/05 07:13:32;;;;;;;9.53;1.43;;;3.80;99.90;;;;;;4957135;28;20037;-84
2022/02/05 07:21:14;;;;;;;10.45;2.45;;;3.80;99.90;;;;;;4973979;28;20038;-83
2022/02/05 07:24:12;;;;;;;9.40;1.58;;;3.80;99.90;;;;;;4972351;28;20027;-83
2022/02/05 07:29:39;;;;;;;13.70;2.10;;;3.90;99.90;;;;;;4970145;28;20413;-83
2022/02/05 07:32:06;;;;;;;16.67;1.73;;;3.80;99.90;;;;;;4946909;28;20038;-82
2022/02/05 07:34:46;;;;;;;9.57;2.22;;;3.80;99.90;;;;;;4961273;28;20047;-84
2022/02/05 07:37:36;;;;;;;13.30;2.20;;;3.80;99.90;;;;;;4938699;28;20042;-83
2022/02/05 07:40:05;;;;;;;11.35;2.15;;;3.80;99.90;;;;;;4956344;28;20049;-84
2022/02/05 07:42:41;;;;;;;19.83;2.30;;;3.90;99.90;;;;;;4958352;28;20069;-85
2022/02/05 07:45:24;;;;;;;12.33;2.33;;;3.90;99.90;;;;;;4973776;28;20034;-84
2022/02/05 07:48:00;;;;;;;10.05;1.63;;;3.90;99.90;;;;;;4955441;28;20046;-83
2022/02/05 07:50:30;;;;;;;17.35;2.55;;;4.00;99.90;;;;;;4956599;28;20401;-83
2022/02/05 07:52:59;;;;;;;10.43;1.90;;;4.00;99.90;;;;;;4971914;28;20037;-83
2022/02/05 07:55:33;;;;;;;11.70;2.17;;;4.00;99.90;;;;;;4944023;28;20708;-84
2022/02/05 07:58:07;;;;;;;10.77;1.98;;;4.00;99.90;;;;;;4973298;28;20037;-83
2022/02/05 08:00:39;;;;;;;16.13;2.13;;;4.00;99.90;;;;;;4972658;28;20046;-83
2022/02/05 08:03:16;;;;;;;11.73;2.45;;;4.10;99.90;;;;;;4942447;28;20038;-84
2022/02/05 08:05:53;;;;;;;9.82;1.73;;;4.10;99.90;;;;;;4973512;28;20045;-84
2022/02/05 08:08:29;;;;;;;11.70;2.28;;;4.10;99.90;;;;;;4973979;28;20030;-83
2022/02/05 08:11:08;;;;;;;11.80;1.80;;;4.10;99.90;;;;;;4959356;28;20406;-85
2022/02/05 08:13:42;;;;;;;16.20;1.92;;;4.10;99.90;;;;;;4973404;28;20037;-84
2022/02/05 08:16:47;;;;;;;12.47;2.30;;;4.10;99.90;;;;;;4940678;28;20049;-84
2022/02/05 08:19:23;;;;;;;12.15;2.55;;;4.20;99.90;;;;;;4940685;28;20038;-84
2022/02/05 08:22:04;;;;;;;10.80;1.70;;;4.20;99.90;;;;;;4978394;28;20036;-83
2022/02/05 08:24:42;;;;;;;6.90;2.20;;;4.30;99.90;;;;;;4926456;28;20046;-84
2022/02/05 08:27:36;;;;;;;19.52;2.83;;;4.30;99.90;;;;;;4955497;28;20041;-84
2022/02/05 08:30:33;;;;;;;9.55;1.90;;;4.40;99.90;;;;;;4969913;28;20030;-85
2022/02/05 08:33:15;;;;;;;11.23;2.22;;;4.50;99.90;;;;;;4958302;28;20030;-84
2022/02/05 08:35:43;;;;;;;10.93;2.25;;;4.50;99.90;;;;;;4985775;28;20041;-82
2022/02/05 08:38:10;;;;;;;12.40;2.40;;;4.50;99.90;;;;;;4956997;28;20039;-85
2022/02/05 08:41:27;;;;;;;19.30;2.97;;;4.60;99.90;;;;;;4959795;28;20707;-85
2022/02/05 08:44:25;;;;;;;13.50;1.60;;;4.60;99.90;;;;;;4940991;28;20485;-83
2022/02/05 08:47:11;;;;;;;12.73;3.78;;;4.70;99.90;;;;;;4930490;28;20050;-85
2022/02/05 08:53:23;;;;;;;17.75;3.10;;;5.00;99.90;;;;;;4971407;28;20026;-83
2022/02/05 08:56:19;;;;;;;11.05;2.55;;;5.10;99.90;;;;;;4959334;28;20375;-83
2022/02/05 08:59:28;;;;;;;14.75;2.03;;;5.20;99.90;;;;;;4956820;28;20413;-84
2022/02/05 09:02:50;;;;;;;11.77;3.05;;;5.20;99.90;;;;;;4969292;28;20394;-83
2022/02/05 09:06:01;;;;;;;16.42;2.88;;;5.10;99.90;;;;;;4946098;28;20069;-82
2022/02/05 09:08:39;;;;;;;13.02;2.85;;;5.20;99.90;;;;;;4947420;28;20038;-82
2022/02/05 09:14:39;;;;;;;13.93;2.63;;;5.30;99.90;;;;;;4990260;28;20508;-83
2022/02/05 09:17:27;;;;;;;19.25;4.50;;;5.50;99.90;;;;;;4962552;28;20041;-82
2022/02/05 09:20:29;;;;;;;14.73;3.28;;;5.60;99.90;;;;;;4973428;28;20053;-83
2022/02/05 09:23:09;;;;;;;13.90;3.72;;;5.70;99.90;;;;;;4932629;28;20398;-83
2022/02/05 09:26:05;;;;;;;12.88;2.85;;;5.80;99.90;;;;;;4959476;28;20042;-83
2022/02/05 09:28:39;;;;;;;16.35;3.03;;;5.80;99.90;;;;;;4941066;28;20035;-82
2022/02/05 09:33:40;;;;;;;11.85;2.83;;;5.90;99.90;;;;;;4924571;28;20050;-82
2022/02/05 09:36:10;;;;;;;9.98;2.35;;;6.00;99.90;;;;;;4960427;28;20519;-83
2022/02/05 09:38:53;;;;;;;11.05;2.95;;;6.00;99.90;;;;;;4944602;28;20390;-80
2022/02/05 09:41:24;;;;;;;10.48;2.90;;;6.10;99.90;;;;;;4945520;28;20034;-80
2022/02/05 09:43:51;;;;;;;18.85;2.72;;;6.10;99.90;;;;;;4928520;28;20425;-80
2022/02/05 09:46:23;;;;;;;10.85;2.30;;;6.10;99.90;;;;;;4961924;28;20051;-79
2022/02/05 09:48:51;;;;;;;16.58;2.53;;;6.10;99.90;;;;;;4944080;28;20030;-80
2022/02/05 09:51:23;;;;;;;13.25;2.00;;;6.10;99.90;;;;;;4914541;28;20043;-79
2022/02/05 09:53:53;;;;;;;11.23;1.98;;;6.10;99.90;;;;;;4959818;28;20023;-80
2022/02/05 09:56:31;;;;;;;12.30;2.58;;;6.20;99.90;;;;;;4951488;28;20050;-81
2022/02/05 09:59:10;;;;;;;14.95;3.10;;;6.30;99.90;;;;;;4954019;28;20026;-82
2022/02/05 10:01:49;;;;;;;10.70;2.63;;;6.40;99.90;;;;;;4955598;28;20465;-82
2022/02/05 10:04:19;;;;;;;10.02;2.08;;;6.50;99.90;;;;;;4969953;28;20049;-80
2022/02/05 10:07:01;;;;;;;9.90;1.90;;;6.70;99.90;;;;;;4991388;28;20360;-81
2022/02/05 10:09:36;;;;;;;16.13;3.28;;;6.80;99.90;;;;;;4976349;28;20503;-81
2022/02/05 10:12:09;;;;;;;9.05;1.60;;;6.90;99.90;;;;;;4959835;28;20488;-79
2022/02/05 10:14:36;;;;;;;12.02;2.20;;;7.10;99.90;;;;;;4969581;28;20033;-79
2022/02/05 10:17:04;;;;;;;8.15;1.73;;;7.30;99.90;;;;;;4976909;28;20466;-79
2022/02/05 10:19:55;;;;;;;14.55;1.85;;;7.50;99.90;;;;;;4957365;28;20062;-80
2022/02/05 10:22:46;;;;;;;10.48;1.85;;;7.70;99.90;;;;;;4942890;28;20041;-81
2022/02/05 10:25:14;;;;;;;10.75;1.60;;;7.80;99.90;;;;;;4968374;28;20030;-79
2022/02/05 10:27:42;;;;;;;10.90;1.92;;;8.00;99.90;;;;;;4971649;28;20030;-78
2022/02/05 10:30:23;;;;;;;10.10;1.17;;;8.20;99.90;;;;;;4958559;28;20477;-81
2022/02/05 10:33:16;;;;;;;12.38;1.17;;;8.50;99.90;;;;;;4971819;28;20037;-79
2022/02/05 10:35:50;;;;;;;14.23;1.80;;;8.70;99.90;;;;;;4965365;28;20042;-80
2022/02/05 10:38:36;;;;;;;14.50;1.92;;;8.80;99.90;;;;;;4957951;28;20019;-81
2022/02/05 10:44:10;;;;;;;4.97;0.80;;;8.90;99.90;;;;;;4953100;28;20038;-81
2022/02/05 10:46:42;;;;;;;14.35;1.45;;;8.80;99.90;;;;;;4955705;28;20034;-80
2022/02/05 10:49:32;;;;;;;11.50;1.52;;;8.70;99.90;;;;;;4975323;28;20053;-79
2022/02/05 10:52:00;;;;;;;17.75;1.83;;;8.60;99.90;;;;;;4956825;28;20031;-80
2022/02/05 10:54:51;;;;;;;11.60;1.20;;;8.40;99.90;;;;;;4934881;28;20599;-78
2022/02/05 10:57:32;;;;;;;15.75;1.63;;;8.20;99.90;;;;;;4956461;28;20034;-78
2022/02/05 11:08:01;;;;;;;8.63;1.27;;;7.90;99.90;;;;;;4921583;28;20546;-78
2022/02/05 11:21:15;;;;;;;10.18;1.30;;;7.40;99.90;;;;;;4957339;28;20051;-84
2022/02/05 11:23:48;;;;;;;8.95;1.05;;;7.40;99.90;;;;;;4923176;28;20532;-82
2022/02/05 11:26:17;;;;;;;9.48;1.90;;;7.40;99.90;;;;;;4985816;28;20933;-81
2022/02/05 11:28:48;;;;;;;7.97;1.23;;;7.40;99.90;;;;;;4943534;28;20113;-79
2022/02/05 11:31:32;;;;;;;7.55;1.27;;;7.40;99.90;;;;;;4958906;28;20033;-81
2022/02/05 11:34:21;;;;;;;11.75;0.93;;;7.40;99.90;;;;;;4956983;28;20042;-79
2022/02/05 11:36:59;;;;;;;8.32;1.30;;;7.40;99.90;;;;;;4955570;28;20037;-79
2022/02/05 11:39:25;;;;;;;10.63;1.17;;;7.50;99.90;;;;;;4994795;28;20026;-79
2022/02/05 11:41:52;;;;;;;11.48;1.50;;;7.50;99.90;;;;;;4944159;28;21125;-80
2022/02/05 11:44:23;;;;;;;14.48;1.70;;;7.60;99.90;;;;;;4986773;28;20452;-79
2022/02/05 11:47:11;;;;;;;9.50;1.08;;;7.60;99.90;;;;;;4968833;28;20030;-78
2022/02/05 11:49:53;;;;;;;10.13;1.50;;;7.70;99.90;;;;;;4960659;28;20027;-78
2022/02/05 11:52:43;;;;;;;11.43;1.30;;;7.60;99.90;;;;;;4974822;28;20030;-79
2022/02/05 11:55:11;;;;;;;11.25;1.20;;;7.50;99.90;;;;;;4942566;28;20038;-78
2022/02/05 11:57:45;;;;;;;9.77;1.77;;;7.50;99.90;;;;;;4959078;28;20389;-79
2022/02/05 12:00:23;;;;;;;9.98;1.70;;;7.60;99.90;;;;;;4953502;28;20385;-82
2022/02/05 12:03:01;;;;;;;14.73;1.27;;;7.60;99.90;;;;;;4973683;28;20037;-84
2022/02/05 12:05:36;;;;;;;8.75;1.33;;;7.60;99.90;;;;;;4968055;28;20127;-81
2022/02/05 12:08:26;;;;;;;9.70;1.25;;;7.60;99.90;;;;;;4971776;28;21171;-82
2022/02/05 12:10:56;;;;;;;10.23;1.65;;;7.50;99.90;;;;;;4970302;28;20034;-81
2022/02/05 12:13:39;;;;;;;8.30;1.10;;;7.50;99.90;;;;;;4956364;28;20489;-81
2022/02/05 12:16:06;;;;;;;11.70;1.63;;;7.50;99.90;;;;;;4960525;28;20038;-82
2022/02/05 12:19:10;;;;;;;10.95;1.30;;;7.70;99.90;;;;;;4970949;28;20034;-81
2022/02/05 12:21:55;;;;;;;11.38;1.45;;;7.90;99.90;;;;;;4988835;28;20489;-81
2022/02/05 12:24:43;;;;;;;11.73;1.65;;;8.10;99.90;;;;;;4953829;28;20123;-81
2022/02/05 12:27:37;;;;;;;11.93;1.85;;;8.30;99.90;;;;;;4960445;28;20119;-83
2022/02/05 12:30:44;;;;;;;14.80;1.45;;;8.40;99.90;;;;;;4972687;28;21037;-82
2022/02/05 12:33:17;;;;;;;12.88;2.03;;;8.40;99.90;;;;;;4972367;28;20470;-82
2022/02/05 12:35:55;;;;;;;7.10;1.30;;;8.30;99.90;;;;;;4929842;28;20044;-83
2022/02/05 12:38:44;;;;;;;12.50;1.77;;;8.20;99.90;;;;;;4941356;28;20035;-84
2022/02/05 12:41:13;;;;;;;7.15;1.00;;;8.10;99.90;;;;;;4957481;28;20034;-84
2022/02/05 12:43:55;;;;;;;7.45;1.00;;;8.10;99.90;;;;;;4940891;28;20135;-84
2022/02/05 12:46:43;;;;;;;16.10;1.98;;;8.10;99.90;;;;;;4971836;28;20030;-82
2022/02/05 12:49:39;;;;;;;13.50;1.10;;;8.20;99.90;;;;;;4987342;28;20030;-84
2022/02/05 12:52:49;;;;;;;15.60;1.65;;;8.40;99.90;;;;;;4972656;28;20034;-85
2022/02/05 12:55:33;;;;;;;12.25;1.50;;;8.50;99.90;;;;;;4956639;28;20049;-82
2022/02/05 12:58:05;;;;;;;10.30;1.50;;;8.60;99.90;;;;;;4947557;28;20045;-82
2022/02/05 13:00:32;;;;;;;9.30;1.08;;;8.60;99.90;;;;;;4972103;28;20045;-83
2022/02/05 13:03:30;;;;;;;6.65;0.85;;;8.60;99.90;;;;;;4951501;28;20042;-83
2022/02/05 13:05:57;;;;;;;8.85;0.90;;;8.60;99.90;;;;;;4966420;28;20048;-82
2022/02/05 13:08:55;;;;;;;11.43;1.10;;;8.60;99.90;;;;;;4964169;28;20046;-86
2022/02/05 13:11:30;;;;;;;9.38;0.80;;;8.50;99.90;;;;;;4990881;28;20049;-84
2022/02/05 13:14:06;;;;;;;7.22;1.42;;;8.50;99.90;;;;;;4970169;28;20041;-85
2022/02/05 13:16:50;;;;;;;9.55;0.93;;;8.40;99.90;;;;;;4948722;28;20034;-84
2022/02/05 13:19:23;;;;;;;12.35;1.35;;;8.40;99.90;;;;;;4974522;28;20018;-84
2022/02/05 13:25:29;;;;;;;7.65;1.08;;;8.30;99.90;;;;;;4951362;28;20053;-83
2022/02/05 13:34:41;;;;;;;9.73;1.38;;;8.00;99.90;;;;;;4920244;28;20494;-85
2022/02/05 13:37:22;;;;;;;12.00;1.25;;;7.90;99.90;;;;;;4975691;28;20041;-83
2022/02/05 13:40:01;;;;;;;8.15;1.50;;;8.00;99.90;;;;;;4958286;28;20032;-81
2022/02/05 13:42:32;;;;;;;11.30;2.58;;;8.10;99.90;;;;;;4977557;28;20052;-82
2022/02/05 13:45:13;;;;;;;11.20;2.10;;;8.10;99.90;;;;;;4969651;28;20035;-82
2022/02/05 13:47:46;;;;;;;9.98;1.75;;;8.10;99.90;;;;;;4960883;28;20037;-83
2022/02/05 13:50:15;;;;;;;5.18;1.00;;;8.10;99.90;;;;;;4974179;28;20050;-82
2022/02/05 13:53:01;;;;;;;11.40;1.35;;;8.20;99.90;;;;;;4943070;28;20029;-84
2022/02/05 13:55:30;;;;;;;8.55;0.90;;;8.10;99.90;;;;;;4968459;28;20027;-83
2022/02/05 13:58:10;;;;;;;9.02;0.80;;;8.10;99.90;;;;;;4956510;28;20034;-83
2022/02/05 14:01:02;;;;;;;9.77;1.00;;;8.20;99.90;;;;;;4971670;28;20041;-83
2022/02/05 14:03:32;;;;;;;7.50;1.40;;;8.20;99.90;;;;;;4936472;28;20042;-84
2022/02/05 14:06:28;;;;;;;9.48;0.95;;;8.10;99.90;;;;;;4945534;28;20037;-84
2022/02/05 14:08:57;;;;;;;8.50;0.75;;;8.10;99.90;;;;;;4942203;28;20666;-84
2022/02/05 14:11:33;;;;;;;7.03;0.80;;;8.00;99.90;;;;;;4943806;28;20034;-83
2022/02/05 14:14:01;;;;;;;10.07;1.15;;;8.00;99.90;;;;;;4974292;28;20115;-84
2022/02/05 14:16:35;;;;;;;6.95;0.95;;;7.90;99.90;;;;;;4959458;28;20030;-84
2022/02/05 14:19:06;;;;;;;8.82;1.02;;;7.90;99.90;;;;;;4960001;28;20377;-84
2022/02/05 14:21:45;;;;;;;8.43;0.80;;;8.00;99.90;;;;;;4943298;28;20032;-84
2022/02/05 14:24:18;;;;;;;10.65;1.55;;;8.00;99.90;;;;;;4942499;28;20030;-84
2022/02/05 14:26:58;;;;;;;6.72;0.93;;;8.00;99.90;;;;;;4972876;28;20042;-84
2022/02/05 14:29:26;;;;;;;5.47;0.65;;;7.90;99.90;;;;;;4959279;28;20085;-84
2022/02/05 14:31:57;;;;;;;6.25;0.82;;;8.00;99.90;;;;;;4978472;28;20034;-84
2022/02/05 14:34:44;;;;;;;6.60;0.90;;;8.00;99.90;;;;;;4961485;28;20030;-84
2022/02/05 14:40:25;;;;;;;8.40;0.95;;;7.90;99.90;;;;;;4978526;28;20038;-84
2022/02/05 14:42:54;;;;;;;7.50;0.98;;;8.00;99.90;;;;;;4966656;28;20049;-84
2022/02/05 14:45:21;;;;;;;6.40;0.70;;;8.10;99.90;;;;;;4959740;28;20433;-84
2022/02/05 14:47:48;;;;;;;5.57;0.85;;;8.10;99.90;;;;;;4994407;28;20034;-84
2022/02/05 14:50:15;;;;;;;9.07;1.30;;;8.10;99.90;;;;;;4994844;28;20444;-84
2022/02/05 14:52:41;;;;;;;8.18;1.13;;;8.20;99.90;;;;;;4960428;28;20412;-84
2022/02/05 14:55:09;;;;;;;7.38;1.02;;;8.10;99.90;;;;;;4973633;28;20386;-83
2022/02/05 14:57:36;;;;;;;10.35;1.35;;;8.20;99.90;;;;;;4978866;28;20372;-84
2022/02/05 15:00:06;;;;;;;9.00;1.15;;;8.10;99.90;;;;;;4960320;28;20064;-83
2022/02/05 15:02:33;;;;;;;7.78;1.08;;;8.10;99.90;;;;;;4965182;28;20030;-85
2022/02/05 15:05:10;;;;;;;10.57;1.10;;;8.00;99.90;;;;;;4930322;28;20486;-84
2022/02/05 15:07:40;;;;;;;9.02;1.20;;;8.00;99.90;;;;;;4978550;28;20490;-83
2022/02/05 15:10:10;;;;;;;6.97;1.05;;;8.00;99.90;;;;;;4978805;28;20046;-83
2022/02/05 15:12:38;;;;;;;8.40;1.10;;;7.90;99.90;;;;;;4960917;28;20049;-84
2022/02/05 15:15:12;;;;;;;12.23;1.27;;;7.90;99.90;;;;;;4960716;28;20026;-84
2022/02/05 15:17:42;;;;;;;9.63;1.20;;;7.90;99.90;;;;;;4977605;28;20038;-85
2022/02/05 15:20:40;;;;;;;8.85;0.70;;;8.00;99.90;;;;;;4981563;28;20026;-84
2022/02/05 15:23:07;;;;;;;13.95;1.27;;;8.00;99.90;;;;;;4975001;28;20334;-83
2022/02/05 15:25:34;;;;;;;10.57;1.00;;;8.00;99.90;;;;;;4957400;28;20038;-80
2022/02/05 15:28:00;;;;;;;17.45;2.22;;;7.90;99.90;;;;;;4958069;28;20038;-82
2022/02/05 15:30:30;;;;;;;11.07;1.27;;;7.90;99.90;;;;;;4976464;28;20038;-84
2022/02/05 15:32:56;;;;;;;10.85;1.27;;;7.90;99.90;;;;;;4992094;28;20039;-83
2022/02/05 15:35:31;;;;;;;12.57;1.15;;;7.90;99.90;;;;;;4975953;28;20025;-87
2022/02/05 15:38:23;;;;;;;5.78;0.85;;;7.80;99.90;;;;;;4929015;28;20054;-86
2022/02/05 15:43:52;;;;;;;9.65;2.40;;;7.70;99.90;;;;;;4970745;28;20030;-84
2022/02/05 15:46:34;;;;;;;;;;;;;;;;;;;;;
2022/02/05 15:49:03;;;;;;;10.82;2.60;;;7.60;99.90;;;;;;4973742;28;20042;-83
2022/02/05 15:51:31;;;;;;;10.07;2.65;;;7.50;99.90;;;;;;4973853;28;20043;-83
2022/02/05 15:54:02;;;;;;;13.50;1.20;;;7.50;99.90;;;;;;4945051;28;20488;-84
2022/02/05 15:56:58;;;;;;;8.50;1.75;;;7.40;99.90;;;;;;4973160;28;20060;-83
2022/02/05 15:59:43;;;;;;;11.32;2.50;;;7.40;99.90;;;;;;4953672;28;20038;-85
2022/02/05 16:02:10;;;;;;;11.43;1.50;;;7.40;99.90;;;;;;4958626;28;20038;-81
2022/02/05 16:04:36;;;;;;;8.35;2.42;;;7.40;99.90;;;;;;4954168;28;20057;-82
2022/02/05 16:07:03;;;;;;;8.18;0.98;;;7.40;99.90;;;;;;4959037;28;20034;-82
2022/02/05 16:09:29;;;;;;;7.05;1.17;;;7.40;99.90;;;;;;4958763;28;20393;-80
2022/02/05 16:11:57;;;;;;;8.07;1.52;;;7.40;99.90;;;;;;4973787;28;20393;-80
2022/02/05 16:14:23;;;;;;;12.60;1.77;;;7.40;99.90;;;;;;4941107;28;20058;-82
2022/02/05 16:16:53;;;;;;;12.32;1.65;;;7.50;99.90;;;;;;4976868;28;20410;-84
2022/02/05 16:19:20;;;;;;;9.38;1.40;;;7.50;99.90;;;;;;4937043;28;20049;-82
2022/02/05 16:21:47;;;;;;;8.98;1.75;;;7.50;99.90;;;;;;4946024;28;20039;-83
2022/02/05 16:24:17;;;;;;;7.20;1.63;;;7.50;99.90;;;;;;4957908;28;20378;-83
2022/02/05 16:26:44;;;;;;;9.30;1.30;;;7.50;99.90;;;;;;4974296;28;20034;-83
2022/02/05 16:29:25;;;;;;;9.55;1.75;;;7.50;99.90;;;;;;4942841;28;20506;-81
2022/02/05 16:31:53;;;;;;;;;;;7.50;99.90;;;;;;4990157;28;20030;-81
2022/02/05 16:34:29;;;;;;;5.15;1.35;;;7.50;99.90;;;;;;4968441;28;19918;-80
2022/02/05 16:37:03;;;;;;;8.50;2.17;;;7.50;99.90;;;;;;4957692;28;20045;-80
2022/02/05 16:39:33;;;;;;;8.63;1.90;;;7.50;99.90;;;;;;4973208;28;20026;-81
2022/02/05 16:41:59;;;;;;;11.40;2.33;;;7.50;99.90;;;;;;4957440;28;20050;-80
2022/02/05 16:44:26;;;;;;;9.90;2.35;;;7.50;99.90;;;;;;4953544;28;20128;-80
2022/02/05 16:46:55;;;;;;;8.13;1.98;;;7.50;99.90;;;;;;4974230;28;20034;-80
2022/02/05 16:49:24;;;;;;;6.82;1.63;;;7.50;99.90;;;;;;4936695;28;20473;-79
2022/02/05 16:51:52;;;;;;;12.70;2.28;;;7.50;99.90;;;;;;4971851;28;20057;-81
2022/02/05 16:54:27;;;;;;;10.95;2.33;;;7.50;99.90;;;;;;4958434;28;20035;-82
2022/02/05 16:56:56;;;;;;;13.13;3.35;;;7.50;99.90;;;;;;4988229;28;20037;-80
2022/02/05 16:59:22;;;;;;;12.30;2.33;;;7.50;99.90;;;;;;4972977;28;20038;-81
2022/02/05 17:01:49;;;;;;;9.13;1.98;;;7.50;99.90;;;;;;4972030;28;20375;-81
2022/02/05 17:04:22;;;;;;;11.02;2.13;;;7.50;99.90;;;;;;4969518;28;20039;-80
2022/02/05 17:06:50;;;;;;;10.05;2.00;;;7.50;99.90;;;;;;4987738;28;20037;-85
2022/02/05 17:09:17;;;;;;;14.95;3.22;;;7.50;99.90;;;;;;4990909;28;20033;-80
2022/02/05 17:11:43;;;;;;;9.63;1.73;;;7.50;99.90;;;;;;4943016;28;20042;-80
2022/02/05 17:14:10;;;;;;;15.43;2.50;;;7.50;99.90;;;;;;4967114;28;20034;-80
2022/02/05 17:16:37;;;;;;;9.93;1.98;;;7.50;99.90;;;;;;4966569;28;20029;-80
2022/02/05 17:19:11;;;;;;;11.00;4.57;;;7.50;99.90;;;;;;4955834;28;20660;-81
2022/02/05 17:21:42;;;;;;;12.38;2.90;;;7.50;99.90;;;;;;4990043;28;20042;-81
2022/02/05 17:24:09;;;;;;;8.88;2.15;;;7.50;99.90;;;;;;4986277;28;20041;-81
2022/02/05 17:26:38;;;;;;;13.02;2.10;;;7.50;99.90;;;;;;4976897;28;20061;-83
2022/02/05 17:29:35;;;;;;;14.85;2.13;;;7.50;99.90;;;;;;4986944;28;20034;-83
2022/02/05 17:32:06;;;;;;;12.02;2.08;;;7.50;99.90;;;;;;4991095;28;20362;-80
2022/02/05 17:34:41;;;;;;;9.60;1.25;;;7.50;99.90;;;;;;4968978;28;20034;-82
2022/02/05 17:37:08;;;;;;;6.63;1.13;;;7.50;99.90;;;;;;4990915;28;20041;-82
2022/02/05 17:39:37;;;;;;;9.00;1.83;;;7.50;99.90;;;;;;4984468;28;20041;-82
2022/02/05 17:42:04;;;;;;;13.32;1.60;;;7.50;99.90;;;;;;4939477;28;20043;-82
2022/02/05 17:44:31;;;;;;;9.15;1.45;;;7.50;99.90;;;;;;4986430;28;20030;-83
2022/02/05 17:46:57;;;;;;;5.68;1.58;;;7.40;99.90;;;;;;4944641;28;20481;-83
2022/02/05 17:49:24;;;;;;;11.20;1.80;;;7.40;99.90;;;;;;4957038;28;20035;-82
2022/02/05 17:51:51;;;;;;;8.60;0.93;;;7.50;99.90;;;;;;4939596;28;20042;-82
2022/02/05 17:54:17;;;;;;;9.60;0.98;;;7.50;99.90;;;;;;4969814;28;20127;-83
2022/02/05 17:56:45;;;;;;;11.45;1.50;;;7.50;99.90;;;;;;4939379;28;20041;-83
2022/02/05 17:59:13;;;;;;;7.05;1.20;;;7.50;99.90;;;;;;4969701;28;20034;-82
2022/02/05 18:01:46;;;;;;;7.75;1.05;;;7.50;99.90;;;;;;4973844;28;20027;-82